createdAt,value
2022-07-26T00:00:13.577Z,1008.18
2022-07-26T00:01:13.608Z,1008.20
2022-07-26T00:02:18.233Z,1008.19
2022-07-26T00:03:13.550Z,1008.20
2022-07-26T00:04:13.557Z,1008.18
2022-07-26T00:05:13.525Z,1008.15
2022-07-26T00:06:13.518Z,1008.12
2022-07-26T00:07:13.507Z,1008.09
2022-07-26T00:08:13.495Z,1008.12
2022-07-26T00:09:13.507Z,1008.13
2022-07-26T00:10:13.468Z,1008.15
2022-07-26T00:11:13.452Z,1008.13
2022-07-26T00:12:13.442Z,1008.10
2022-07-26T00:13:13.439Z,1008.13
2022-07-26T00:14:13.432Z,1008.19
2022-07-26T00:15:13.416Z,1008.17
2022-07-26T00:16:13.530Z,1008.15
2022-07-26T00:17:13.386Z,1008.18
2022-07-26T00:18:13.374Z,1008.13
2022-07-26T00:19:13.389Z,1008.14
2022-07-26T00:20:13.360Z,1008.14
2022-07-26T00:21:13.348Z,1008.18
2022-07-26T00:22:13.332Z,1008.20
2022-07-26T00:23:13.347Z,1008.17
2022-07-26T00:24:13.322Z,1008.16
2022-07-26T00:25:13.311Z,1008.14
2022-07-26T00:26:13.292Z,1008.17
2022-07-26T00:27:13.274Z,1008.19
2022-07-26T00:28:13.274Z,1008.17
2022-07-26T00:29:13.282Z,1008.19
2022-07-26T00:30:13.239Z,1008.18
2022-07-26T00:31:13.334Z,1008.17
2022-07-26T00:32:13.220Z,1008.14
2022-07-26T00:33:13.212Z,1008.15
2022-07-26T00:34:13.221Z,1008.18
2022-07-26T00:35:13.182Z,1008.14
2022-07-26T00:36:13.179Z,1008.16
2022-07-26T00:37:17.097Z,1008.13
2022-07-26T00:38:14.157Z,1008.11
2022-07-26T00:39:13.152Z,1008.12
2022-07-26T00:40:13.133Z,1008.14
2022-07-26T00:41:13.123Z,1008.12
2022-07-26T00:42:13.104Z,1008.15
2022-07-26T00:43:13.091Z,1008.12
2022-07-26T00:44:13.110Z,1008.14
2022-07-26T00:45:13.079Z,1008.12
2022-07-26T00:46:13.120Z,1008.16
2022-07-26T00:47:13.054Z,1008.12
2022-07-26T00:48:13.039Z,1008.14
2022-07-26T00:49:13.503Z,1008.19
2022-07-26T00:50:13.030Z,1008.18
2022-07-26T00:51:13.003Z,1008.18
2022-07-26T00:52:13.012Z,1008.19
2022-07-26T00:53:12.983Z,1008.23
2022-07-26T00:54:12.991Z,1008.21
2022-07-26T00:55:12.970Z,1008.21
2022-07-26T00:56:12.949Z,1008.21
2022-07-26T00:57:12.943Z,1008.18
2022-07-26T00:58:12.933Z,1008.19
2022-07-26T00:59:12.935Z,1008.23
2022-07-26T01:00:12.904Z,1008.26
2022-07-26T01:01:12.999Z,1008.25
2022-07-26T01:02:12.929Z,1008.23
2022-07-26T01:03:12.870Z,1008.24
2022-07-26T01:04:12.905Z,1008.24
2022-07-26T01:05:12.853Z,1008.26
2022-07-26T01:06:12.838Z,1008.27
2022-07-26T01:07:15.047Z,1008.29
2022-07-26T01:08:12.822Z,1008.28
2022-07-26T01:09:12.804Z,1008.28
2022-07-26T01:10:12.944Z,1008.28
2022-07-26T01:11:12.785Z,1008.29
2022-07-26T01:12:12.819Z,1008.26
2022-07-26T01:13:12.763Z,1008.23
2022-07-26T01:14:12.752Z,1008.21
2022-07-26T01:15:12.755Z,1008.24
2022-07-26T01:16:12.831Z,1008.25
2022-07-26T01:17:12.714Z,1008.27
2022-07-26T01:18:12.702Z,1008.26
2022-07-26T01:19:12.701Z,1008.24
2022-07-26T01:20:12.706Z,1008.26
2022-07-26T01:21:13.441Z,1008.24
2022-07-26T01:22:14.771Z,1008.31
2022-07-26T01:23:12.655Z,1008.34
2022-07-26T01:24:12.646Z,1008.29
2022-07-26T01:25:12.637Z,1008.33
2022-07-26T01:26:12.720Z,1008.30
2022-07-26T01:27:12.601Z,1008.27
2022-07-26T01:28:20.191Z,1008.27
2022-07-26T01:29:13.586Z,1008.31
2022-07-26T01:30:12.594Z,1008.27
2022-07-26T01:31:12.636Z,1008.27
2022-07-26T01:32:12.545Z,1008.25
2022-07-26T01:33:12.544Z,1008.27
2022-07-26T01:34:12.530Z,1008.29
2022-07-26T01:35:12.523Z,1008.27
2022-07-26T01:36:12.503Z,1008.29
2022-07-26T01:37:12.496Z,1008.30
2022-07-26T01:38:12.483Z,1008.31
2022-07-26T01:39:12.478Z,1008.32
2022-07-26T01:40:12.479Z,1008.32
2022-07-26T01:41:12.443Z,1008.34
2022-07-26T01:42:12.442Z,1008.39
2022-07-26T01:43:12.444Z,1008.33
2022-07-26T01:44:12.996Z,1008.36
2022-07-26T01:45:12.414Z,1008.38
2022-07-26T01:46:12.460Z,1008.40
2022-07-26T01:47:12.376Z,1008.42
2022-07-26T01:48:12.370Z,1008.40
2022-07-26T01:49:12.443Z,1008.41
2022-07-26T01:50:12.361Z,1008.46
2022-07-26T01:51:12.333Z,1008.46
2022-07-26T01:52:12.323Z,1008.43
2022-07-26T01:53:12.309Z,1008.45
2022-07-26T01:54:12.566Z,1008.48
2022-07-26T01:55:12.303Z,1008.44
2022-07-26T01:56:12.299Z,1008.43
2022-07-26T01:57:12.276Z,1008.42
2022-07-26T01:58:12.262Z,1008.42
2022-07-26T01:59:12.249Z,1008.40
2022-07-26T02:00:12.249Z,1008.40
2022-07-26T02:01:12.257Z,1008.44
2022-07-26T02:02:12.323Z,1008.45
2022-07-26T02:03:12.288Z,1008.44
2022-07-26T02:04:12.505Z,1008.47
2022-07-26T02:05:12.189Z,1008.48
2022-07-26T02:06:12.172Z,1008.46
2022-07-26T02:07:13.062Z,1008.46
2022-07-26T02:08:12.143Z,1008.47
2022-07-26T02:09:13.198Z,1008.48
2022-07-26T02:10:12.160Z,1008.47
2022-07-26T02:11:12.120Z,1008.45
2022-07-26T02:12:12.097Z,1008.47
2022-07-26T02:13:12.099Z,1008.51
2022-07-26T02:14:12.082Z,1008.52
2022-07-26T02:15:13.072Z,1008.53
2022-07-26T02:16:12.138Z,1008.52
2022-07-26T02:17:12.041Z,1008.50
2022-07-26T02:18:12.036Z,1008.50
2022-07-26T02:19:12.019Z,1008.52
2022-07-26T02:20:12.037Z,1008.47
2022-07-26T02:21:12.006Z,1008.52
2022-07-26T02:22:11.986Z,1008.48
2022-07-26T02:23:11.978Z,1008.51
2022-07-26T02:24:11.961Z,1008.54
2022-07-26T02:25:11.976Z,1008.52
2022-07-26T02:26:11.952Z,1008.53
2022-07-26T02:27:11.927Z,1008.54
2022-07-26T02:28:11.920Z,1008.59
2022-07-26T02:29:11.910Z,1008.60
2022-07-26T02:30:11.914Z,1008.59
2022-07-26T02:31:11.939Z,1008.59
2022-07-26T02:32:11.884Z,1008.61
2022-07-26T02:33:11.869Z,1008.64
2022-07-26T02:34:11.857Z,1008.64
2022-07-26T02:35:11.848Z,1008.65
2022-07-26T02:36:11.834Z,1008.67
2022-07-26T02:37:11.821Z,1008.68
2022-07-26T02:38:11.813Z,1008.70
2022-07-26T02:39:11.817Z,1008.68
2022-07-26T02:40:16.876Z,1008.66
2022-07-26T02:41:12.770Z,1008.67
2022-07-26T02:42:11.770Z,1008.71
2022-07-26T02:43:11.750Z,1008.71
2022-07-26T02:44:12.112Z,1008.73
2022-07-26T02:45:11.742Z,1008.71
2022-07-26T02:46:11.807Z,1008.75
2022-07-26T02:47:12.651Z,1008.77
2022-07-26T02:48:11.696Z,1008.77
2022-07-26T02:49:11.735Z,1008.79
2022-07-26T02:50:11.696Z,1008.77
2022-07-26T02:51:11.665Z,1008.76
2022-07-26T02:52:11.655Z,1008.75
2022-07-26T02:53:11.645Z,1008.77
2022-07-26T02:54:12.120Z,1008.75
2022-07-26T02:55:11.636Z,1008.73
2022-07-26T02:56:11.614Z,1008.70
2022-07-26T02:57:11.601Z,1008.73
2022-07-26T02:58:11.590Z,1008.72
2022-07-26T02:59:11.568Z,1008.75
2022-07-26T03:00:11.576Z,1008.78
2022-07-26T03:01:11.576Z,1008.76
2022-07-26T03:02:11.547Z,1008.80
2022-07-26T03:03:11.631Z,1008.80
2022-07-26T03:04:11.724Z,1008.82
2022-07-26T03:05:11.528Z,1008.79
2022-07-26T03:06:11.491Z,1008.77
2022-07-26T03:07:11.480Z,1008.78
2022-07-26T03:08:11.476Z,1008.76
2022-07-26T03:09:11.462Z,1008.77
2022-07-26T03:10:11.460Z,1008.76
2022-07-26T03:11:12.233Z,1008.79
2022-07-26T03:12:11.423Z,1008.76
2022-07-26T03:13:11.432Z,1008.78
2022-07-26T03:14:11.795Z,1008.78
2022-07-26T03:15:11.391Z,1008.79
2022-07-26T03:16:11.491Z,1008.77
2022-07-26T03:17:11.380Z,1008.79
2022-07-26T03:18:11.371Z,1008.77
2022-07-26T03:19:11.353Z,1008.76
2022-07-26T03:20:11.342Z,1008.76
2022-07-26T03:21:11.347Z,1008.73
2022-07-26T03:22:11.320Z,1008.75
2022-07-26T03:23:11.300Z,1008.75
2022-07-26T03:24:11.723Z,1008.82
2022-07-26T03:25:11.289Z,1008.81
2022-07-26T03:26:11.287Z,1008.82
2022-07-26T03:27:11.276Z,1008.84
2022-07-26T03:28:14.704Z,1008.84
2022-07-26T03:29:12.231Z,1008.84
2022-07-26T03:30:11.222Z,1008.86
2022-07-26T03:31:11.299Z,1008.82
2022-07-26T03:32:11.209Z,1008.81
2022-07-26T03:33:11.189Z,1008.83
2022-07-26T03:34:11.495Z,1008.82
2022-07-26T03:35:11.175Z,1008.88
2022-07-26T03:36:11.484Z,1008.84
2022-07-26T03:37:11.152Z,1008.85
2022-07-26T03:38:11.133Z,1008.85
2022-07-26T03:39:11.130Z,1008.85
2022-07-26T03:40:11.123Z,1008.89
2022-07-26T03:41:13.403Z,1008.86
2022-07-26T03:42:11.113Z,1008.87
2022-07-26T03:43:11.087Z,1008.89
2022-07-26T03:44:11.508Z,1008.90
2022-07-26T03:45:11.075Z,1008.91
2022-07-26T03:46:11.129Z,1008.93
2022-07-26T03:47:11.057Z,1008.90
2022-07-26T03:48:11.028Z,1008.96
2022-07-26T03:49:16.414Z,1008.98
2022-07-26T03:50:12.012Z,1008.96
2022-07-26T03:51:10.993Z,1008.99
2022-07-26T03:52:11.002Z,1009.00
2022-07-26T03:53:10.977Z,1009.01
2022-07-26T03:54:11.586Z,1008.99
2022-07-26T03:55:10.948Z,1008.98
2022-07-26T03:56:10.943Z,1008.99
2022-07-26T03:57:10.945Z,1008.98
2022-07-26T03:58:10.916Z,1009.03
2022-07-26T03:59:10.904Z,1009.03
2022-07-26T04:00:10.888Z,1008.99
2022-07-26T04:01:10.926Z,1009.05
2022-07-26T04:02:11.008Z,1009.05
2022-07-26T04:03:10.859Z,1009.06
2022-07-26T04:04:11.479Z,1009.05
2022-07-26T04:05:10.831Z,1008.99
2022-07-26T04:06:10.826Z,1009.04
2022-07-26T04:07:10.834Z,1009.04
2022-07-26T04:08:10.803Z,1009.04
2022-07-26T04:09:10.784Z,1009.03
2022-07-26T04:10:10.782Z,1009.04
2022-07-26T04:11:10.760Z,1009.08
2022-07-26T04:12:10.766Z,1009.04
2022-07-26T04:13:10.745Z,1009.04
2022-07-26T04:14:11.245Z,1009.05
2022-07-26T04:15:10.723Z,1009.03
2022-07-26T04:16:10.708Z,1009.07
2022-07-26T04:17:10.796Z,1009.06
2022-07-26T04:18:10.684Z,1009.07
2022-07-26T04:19:10.677Z,1009.13
2022-07-26T04:20:10.666Z,1009.17
2022-07-26T04:21:10.657Z,1009.14
2022-07-26T04:22:10.647Z,1009.17
2022-07-26T04:23:11.812Z,1009.15
2022-07-26T04:24:10.990Z,1009.12
2022-07-26T04:25:10.604Z,1009.15
2022-07-26T04:26:10.588Z,1009.18
2022-07-26T04:27:10.580Z,1009.20
2022-07-26T04:28:10.588Z,1009.19
2022-07-26T04:29:11.626Z,1009.17
2022-07-26T04:30:14.694Z,1009.16
2022-07-26T04:31:11.607Z,1009.18
2022-07-26T04:32:10.528Z,1009.16
2022-07-26T04:33:10.526Z,1009.17
2022-07-26T04:34:10.986Z,1009.19
2022-07-26T04:35:10.497Z,1009.18
2022-07-26T04:36:10.473Z,1009.18
2022-07-26T04:37:10.462Z,1009.19
2022-07-26T04:38:10.464Z,1009.20
2022-07-26T04:39:10.439Z,1009.21
2022-07-26T04:40:10.434Z,1009.23
2022-07-26T04:41:10.424Z,1009.19
2022-07-26T04:42:10.404Z,1009.22
2022-07-26T04:43:15.716Z,1009.23
2022-07-26T04:44:11.742Z,1009.22
2022-07-26T04:45:10.378Z,1009.25
2022-07-26T04:46:10.416Z,1009.21
2022-07-26T04:47:10.361Z,1009.23
2022-07-26T04:48:10.370Z,1009.15
2022-07-26T04:49:10.433Z,1009.19
2022-07-26T04:50:10.321Z,1009.14
2022-07-26T04:51:10.303Z,1009.23
2022-07-26T04:52:10.306Z,1009.12
2022-07-26T04:53:10.315Z,1009.20
2022-07-26T04:54:10.878Z,1009.13
2022-07-26T04:55:10.261Z,1009.20
2022-07-26T04:56:10.248Z,1009.16
2022-07-26T04:57:10.240Z,1009.16
2022-07-26T04:58:10.237Z,1009.16
2022-07-26T04:59:10.241Z,1009.18
2022-07-26T05:00:21.143Z,1009.24
2022-07-26T05:01:11.523Z,1009.23
2022-07-26T05:02:10.393Z,1009.22
2022-07-26T05:03:10.252Z,1009.23
2022-07-26T05:04:10.523Z,1009.24
2022-07-26T05:05:10.147Z,1009.18
2022-07-26T05:06:10.125Z,1009.20
2022-07-26T05:07:10.122Z,1009.18
2022-07-26T05:08:10.110Z,1009.13
2022-07-26T05:09:10.112Z,1009.16
2022-07-26T05:10:10.079Z,1009.14
2022-07-26T05:11:10.075Z,1009.13
2022-07-26T05:12:10.063Z,1009.12
2022-07-26T05:13:10.050Z,1009.11
2022-07-26T05:14:10.283Z,1009.15
2022-07-26T05:15:14.056Z,1009.15
2022-07-26T05:16:11.988Z,1009.15
2022-07-26T05:17:10.593Z,1009.17
2022-07-26T05:18:10.691Z,1009.15
2022-07-26T05:19:10.001Z,1009.18
2022-07-26T05:20:09.978Z,1009.18
2022-07-26T05:21:09.963Z,1009.14
2022-07-26T05:22:09.943Z,1009.18
2022-07-26T05:23:09.937Z,1009.14
2022-07-26T05:24:10.359Z,1009.16
2022-07-26T05:25:09.929Z,1009.19
2022-07-26T05:26:09.915Z,1009.20
2022-07-26T05:27:09.915Z,1009.22
2022-07-26T05:28:09.883Z,1009.22
2022-07-26T05:29:09.892Z,1009.21
2022-07-26T05:30:09.860Z,1009.19
2022-07-26T05:31:09.923Z,1009.18
2022-07-26T05:32:09.836Z,1009.22
2022-07-26T05:33:09.828Z,1009.25
2022-07-26T05:34:10.436Z,1009.27
2022-07-26T05:35:09.816Z,1009.28
2022-07-26T05:36:09.786Z,1009.27
2022-07-26T05:37:09.780Z,1009.28
2022-07-26T05:38:09.762Z,1009.27
2022-07-26T05:39:15.674Z,1009.26
2022-07-26T05:40:10.738Z,1009.29
2022-07-26T05:41:09.739Z,1009.27
2022-07-26T05:42:09.727Z,1009.25
2022-07-26T05:43:09.723Z,1009.27
2022-07-26T05:44:10.333Z,1009.25
2022-07-26T05:45:09.685Z,1009.27
2022-07-26T05:46:10.031Z,1009.30
2022-07-26T05:47:09.718Z,1009.26
2022-07-26T05:48:09.651Z,1009.30
2022-07-26T05:49:09.817Z,1009.31
2022-07-26T05:50:09.644Z,1009.28
2022-07-26T05:51:09.629Z,1009.28
2022-07-26T05:52:09.605Z,1009.33
2022-07-26T05:53:09.596Z,1009.30
2022-07-26T05:54:10.168Z,1009.28
2022-07-26T05:55:09.579Z,1009.29
2022-07-26T05:56:09.566Z,1009.24
2022-07-26T05:57:09.549Z,1009.27
2022-07-26T05:58:09.566Z,1009.30
2022-07-26T05:59:09.559Z,1009.30
2022-07-26T06:00:09.525Z,1009.27
2022-07-26T06:01:09.510Z,1009.29
2022-07-26T06:02:09.558Z,1009.29
2022-07-26T06:03:09.482Z,1009.34
2022-07-26T06:04:09.937Z,1009.33
2022-07-26T06:05:09.465Z,1009.39
2022-07-26T06:06:09.474Z,1009.39
2022-07-26T06:07:09.447Z,1009.39
2022-07-26T06:08:09.431Z,1009.39
2022-07-26T06:09:09.439Z,1009.38
2022-07-26T06:10:09.413Z,1009.41
2022-07-26T06:11:09.401Z,1009.37
2022-07-26T06:12:09.387Z,1009.38
2022-07-26T06:13:09.377Z,1009.41
2022-07-26T06:14:09.740Z,1009.41
2022-07-26T06:15:14.864Z,1009.39
2022-07-26T06:16:10.337Z,1009.44
2022-07-26T06:17:09.357Z,1009.40
2022-07-26T06:18:09.317Z,1009.42
2022-07-26T06:19:09.321Z,1009.43
2022-07-26T06:20:09.295Z,1009.42
2022-07-26T06:21:09.278Z,1009.44
2022-07-26T06:22:09.268Z,1009.47
2022-07-26T06:23:09.258Z,1009.48
2022-07-26T06:24:09.806Z,1009.51
2022-07-26T06:25:09.239Z,1009.51
2022-07-26T06:26:09.226Z,1009.51
2022-07-26T06:27:09.207Z,1009.49
2022-07-26T06:28:09.199Z,1009.51
2022-07-26T06:29:09.205Z,1009.52
2022-07-26T06:30:09.174Z,1009.54
2022-07-26T06:31:09.160Z,1009.54
2022-07-26T06:32:09.273Z,1009.54
2022-07-26T06:33:09.146Z,1009.58
2022-07-26T06:34:10.077Z,1009.57
2022-07-26T06:35:09.116Z,1009.57
2022-07-26T06:36:09.120Z,1009.61
2022-07-26T06:37:09.103Z,1009.60
2022-07-26T06:38:09.088Z,1009.64
2022-07-26T06:39:09.116Z,1009.66
2022-07-26T06:40:09.062Z,1009.65
2022-07-26T06:41:09.057Z,1009.66
2022-07-26T06:42:09.044Z,1009.71
2022-07-26T06:43:09.050Z,1009.70
2022-07-26T06:44:09.316Z,1009.72
2022-07-26T06:45:09.018Z,1009.74
2022-07-26T06:46:09.026Z,1009.75
2022-07-26T06:47:08.988Z,1009.72
2022-07-26T06:48:08.981Z,1009.71
2022-07-26T06:49:09.073Z,1009.72
2022-07-26T06:50:08.960Z,1009.69
2022-07-26T06:51:08.948Z,1009.66
2022-07-26T06:52:08.956Z,1009.70
2022-07-26T06:53:09.019Z,1009.75
2022-07-26T06:54:09.304Z,1009.75
2022-07-26T06:55:08.896Z,1009.75
2022-07-26T06:56:08.887Z,1009.74
2022-07-26T06:57:08.871Z,1009.82
2022-07-26T06:58:08.859Z,1009.80
2022-07-26T06:59:09.634Z,1009.78
2022-07-26T07:00:08.851Z,1009.78
2022-07-26T07:01:08.916Z,1009.77
2022-07-26T07:02:08.952Z,1009.76
2022-07-26T07:03:08.814Z,1009.76
2022-07-26T07:04:09.285Z,1009.77
2022-07-26T07:05:08.883Z,1009.79
2022-07-26T07:06:08.765Z,1009.82
2022-07-26T07:07:08.761Z,1009.81
2022-07-26T07:08:08.747Z,1009.84
2022-07-26T07:09:08.896Z,1009.79
2022-07-26T07:10:08.723Z,1009.86
2022-07-26T07:11:08.722Z,1009.84
2022-07-26T07:12:09.995Z,1009.85
2022-07-26T07:13:08.685Z,1009.86
2022-07-26T07:14:09.039Z,1009.87
2022-07-26T07:15:08.678Z,1009.88
2022-07-26T07:16:08.745Z,1009.87
2022-07-26T07:17:10.942Z,1009.86
2022-07-26T07:18:08.629Z,1009.90
2022-07-26T07:19:08.617Z,1009.91
2022-07-26T07:20:08.632Z,1009.87
2022-07-26T07:21:08.603Z,1009.89
2022-07-26T07:22:08.599Z,1009.88
2022-07-26T07:23:08.585Z,1009.94
2022-07-26T07:24:09.054Z,1009.90
2022-07-26T07:25:08.575Z,1009.93
2022-07-26T07:26:08.538Z,1009.99
2022-07-26T07:27:08.535Z,1009.93
2022-07-26T07:28:08.518Z,1009.96
2022-07-26T07:29:08.506Z,1009.97
2022-07-26T07:30:08.519Z,1009.99
2022-07-26T07:31:08.529Z,1009.97
2022-07-26T07:32:08.570Z,1009.97
2022-07-26T07:33:09.475Z,1009.97
2022-07-26T07:34:09.956Z,1009.99
2022-07-26T07:35:12.817Z,1010.06
2022-07-26T07:36:08.435Z,1010.04
2022-07-26T07:37:08.416Z,1010.06
2022-07-26T07:38:08.410Z,1010.06
2022-07-26T07:39:13.779Z,1010.12
2022-07-26T07:40:09.393Z,1010.08
2022-07-26T07:41:08.373Z,1010.09
2022-07-26T07:42:08.365Z,1010.08
2022-07-26T07:43:08.351Z,1010.04
2022-07-26T07:44:08.719Z,1010.07
2022-07-26T07:45:08.346Z,1010.07
2022-07-26T07:46:08.316Z,1010.10
2022-07-26T07:47:08.399Z,1010.09
2022-07-26T07:48:08.298Z,1010.08
2022-07-26T07:49:08.736Z,1010.10
2022-07-26T07:50:08.294Z,1010.08
2022-07-26T07:51:08.266Z,1010.13
2022-07-26T07:52:08.261Z,1010.12
2022-07-26T07:53:08.246Z,1010.10
2022-07-26T07:54:08.233Z,1010.14
2022-07-26T07:55:40.405Z,1010.10
2022-07-26T07:56:09.200Z,1010.12
2022-07-26T07:57:08.201Z,1010.08
2022-07-26T07:58:08.187Z,1010.08
2022-07-26T07:59:08.396Z,1010.12
2022-07-26T08:00:08.169Z,1010.13
2022-07-26T08:01:08.209Z,1010.06
2022-07-26T08:02:09.134Z,1010.08
2022-07-26T08:03:08.207Z,1010.10
2022-07-26T08:04:08.227Z,1010.08
2022-07-26T08:05:14.002Z,1010.09
2022-07-26T08:06:09.088Z,1010.10
2022-07-26T08:07:08.087Z,1010.09
2022-07-26T08:08:08.197Z,1010.09
2022-07-26T08:09:08.532Z,1010.09
2022-07-26T08:10:08.061Z,1010.07
2022-07-26T08:11:08.098Z,1010.11
2022-07-26T08:12:08.026Z,1010.08
2022-07-26T08:13:08.018Z,1010.11
2022-07-26T08:14:08.000Z,1010.11
2022-07-26T08:15:08.392Z,1010.08
2022-07-26T08:16:09.528Z,1010.09
2022-07-26T08:17:07.974Z,1010.14
2022-07-26T08:18:08.620Z,1010.12
2022-07-26T08:19:08.028Z,1010.13
2022-07-26T08:20:08.032Z,1010.16
2022-07-26T08:21:07.922Z,1010.08
2022-07-26T08:22:07.909Z,1010.11
2022-07-26T08:23:07.906Z,1010.16
2022-07-26T08:24:07.889Z,1010.10
2022-07-26T08:25:07.898Z,1010.14
2022-07-26T08:26:07.865Z,1010.14
2022-07-26T08:27:07.884Z,1010.20
2022-07-26T08:28:15.511Z,1010.21
2022-07-26T08:29:08.838Z,1010.20
2022-07-26T08:30:07.839Z,1010.16
2022-07-26T08:31:07.935Z,1010.19
2022-07-26T08:32:07.912Z,1010.21
2022-07-26T08:33:07.794Z,1010.20
2022-07-26T08:34:07.796Z,1010.21
2022-07-26T08:35:17.707Z,1010.17
2022-07-26T08:36:08.752Z,1010.22
2022-07-26T08:37:17.066Z,1010.24
2022-07-26T08:38:08.745Z,1010.22
2022-07-26T08:39:08.063Z,1010.24
2022-07-26T08:40:07.732Z,1010.26
2022-07-26T08:41:07.703Z,1010.30
2022-07-26T08:42:07.690Z,1010.32
2022-07-26T08:43:07.673Z,1010.30
2022-07-26T08:44:07.671Z,1010.26
2022-07-26T08:45:07.678Z,1010.29
2022-07-26T08:46:07.721Z,1010.26
2022-07-26T08:47:07.665Z,1010.26
2022-07-26T08:48:17.754Z,1010.32
2022-07-26T08:49:08.902Z,1010.33
2022-07-26T08:50:07.621Z,1010.31
2022-07-26T08:51:07.592Z,1010.31
2022-07-26T08:52:07.573Z,1010.31
2022-07-26T08:53:07.560Z,1010.31
2022-07-26T08:54:07.565Z,1010.39
2022-07-26T08:55:07.549Z,1010.38
2022-07-26T08:56:07.933Z,1010.38
2022-07-26T08:57:07.517Z,1010.36
2022-07-26T08:58:07.513Z,1010.36
2022-07-26T08:59:07.984Z,1010.36
2022-07-26T09:00:07.507Z,1010.33
2022-07-26T09:01:07.538Z,1010.36
2022-07-26T09:02:07.461Z,1010.35
2022-07-26T09:03:07.459Z,1010.35
2022-07-26T09:04:07.484Z,1010.41
2022-07-26T09:05:07.441Z,1010.41
2022-07-26T09:06:07.424Z,1010.63
2022-07-26T09:07:07.410Z,1010.50
2022-07-26T09:08:07.396Z,1010.43
2022-07-26T09:09:07.787Z,1010.44
2022-07-26T09:10:07.402Z,1010.44
2022-07-26T09:11:07.367Z,1010.38
2022-07-26T09:12:07.358Z,1010.37
2022-07-26T09:13:07.348Z,1010.38
2022-07-26T09:14:07.336Z,1010.47
2022-07-26T09:15:07.328Z,1010.49
2022-07-26T09:16:07.323Z,1010.51
2022-07-26T09:17:07.293Z,1010.79
2022-07-26T09:18:07.291Z,1010.50
2022-07-26T09:19:07.498Z,1010.80
2022-07-26T09:20:07.286Z,1010.85
2022-07-26T09:21:07.249Z,1010.56
2022-07-26T09:22:10.384Z,1010.82
2022-07-26T09:23:07.233Z,1010.80
2022-07-26T09:24:07.225Z,1010.86
2022-07-26T09:25:07.230Z,1010.81
2022-07-26T09:26:07.195Z,1010.64
2022-07-26T09:27:07.191Z,1010.86
2022-07-26T09:28:07.173Z,1010.91
2022-07-26T09:29:07.546Z,1010.76
2022-07-26T09:30:07.188Z,1010.91
2022-07-26T09:31:07.204Z,1010.57
2022-07-26T09:32:07.139Z,1010.50
2022-07-26T09:33:07.137Z,1010.47
2022-07-26T09:34:07.798Z,1010.46
2022-07-26T09:35:24.214Z,1010.45
2022-07-26T09:36:08.094Z,1010.72
2022-07-26T09:37:11.637Z,1010.63
2022-07-26T09:38:08.074Z,1010.45
2022-07-26T09:39:07.332Z,1010.76
2022-07-26T09:40:07.102Z,1010.87
2022-07-26T09:41:07.042Z,1010.58
2022-07-26T09:42:26.971Z,1010.51
2022-07-26T09:43:08.010Z,1010.40
2022-07-26T09:44:07.211Z,1010.41
2022-07-26T09:45:07.006Z,1010.42
2022-07-26T09:46:07.233Z,1010.47
2022-07-26T09:47:06.971Z,1010.61
2022-07-26T09:48:06.967Z,1010.50
2022-07-26T09:49:10.361Z,1010.47
2022-07-26T09:50:11.221Z,1010.42
2022-07-26T09:51:06.927Z,1010.46
2022-07-26T09:52:06.929Z,1010.66
2022-07-26T09:53:06.913Z,1010.44
2022-07-26T09:54:07.118Z,1010.58
2022-07-26T09:55:06.905Z,1010.61
2022-07-26T09:56:06.878Z,1010.55
2022-07-26T09:57:06.859Z,1010.56
2022-07-26T09:58:06.858Z,1010.41
2022-07-26T09:59:06.837Z,1010.45
2022-07-26T10:00:07.841Z,1010.40
2022-07-26T10:01:06.827Z,1010.40
2022-07-26T10:02:06.860Z,1010.74
2022-07-26T10:03:06.914Z,1010.83
2022-07-26T10:04:06.897Z,1010.41
2022-07-26T10:05:06.800Z,1010.55
2022-07-26T10:06:06.776Z,1010.59
2022-07-26T10:07:06.753Z,1010.53
2022-07-26T10:08:06.743Z,1010.51
2022-07-26T10:09:06.738Z,1010.47
2022-07-26T10:10:06.737Z,1010.50
2022-07-26T10:11:06.738Z,1010.43
2022-07-26T10:12:06.700Z,1010.83
2022-07-26T10:13:06.697Z,1010.77
2022-07-26T10:14:06.817Z,1010.77
2022-07-26T10:15:06.692Z,1010.49
2022-07-26T10:16:06.701Z,1010.55
2022-07-26T10:17:06.646Z,1010.45
2022-07-26T10:18:06.638Z,1010.39
2022-07-26T10:19:06.630Z,1010.42
2022-07-26T10:20:10.715Z,1010.46
2022-07-26T10:21:07.610Z,1010.37
2022-07-26T10:22:06.595Z,1010.40
2022-07-26T10:23:06.588Z,1010.44
2022-07-26T10:24:06.682Z,1010.75
2022-07-26T10:25:06.579Z,1010.43
2022-07-26T10:26:06.553Z,1010.41
2022-07-26T10:27:06.546Z,1010.62
2022-07-26T10:28:11.992Z,1010.46
2022-07-26T10:29:07.522Z,1010.48
2022-07-26T10:30:06.521Z,1010.39
2022-07-26T10:31:06.515Z,1010.48
2022-07-26T10:32:06.497Z,1010.78
2022-07-26T10:33:06.474Z,1010.47
2022-07-26T10:34:06.472Z,1010.46
2022-07-26T10:35:06.476Z,1010.47
2022-07-26T10:36:06.443Z,1010.49
2022-07-26T10:37:06.432Z,1010.46
2022-07-26T10:38:06.427Z,1010.44
2022-07-26T10:39:06.415Z,1010.46
2022-07-26T10:40:06.414Z,1010.42
2022-07-26T10:41:06.387Z,1010.50
2022-07-26T10:42:06.378Z,1010.48
2022-07-26T10:43:30.106Z,1010.47
2022-07-26T10:44:07.714Z,1010.76
2022-07-26T10:45:06.360Z,1010.60
2022-07-26T10:46:06.363Z,1010.49
2022-07-26T10:47:06.330Z,1010.47
2022-07-26T10:48:06.319Z,1010.52
2022-07-26T10:49:06.465Z,1010.56
2022-07-26T10:50:06.319Z,1010.45
2022-07-26T10:51:06.613Z,1010.71
2022-07-26T10:52:06.270Z,1010.73
2022-07-26T10:53:06.258Z,1010.56
2022-07-26T10:54:06.262Z,1010.78
2022-07-26T10:55:06.251Z,1010.66
2022-07-26T10:56:06.235Z,1010.80
2022-07-26T10:57:06.219Z,1010.87
2022-07-26T10:58:06.205Z,1010.84
2022-07-26T10:59:06.205Z,1010.85
2022-07-26T11:00:06.202Z,1010.76
2022-07-26T11:01:06.182Z,1010.60
2022-07-26T11:02:06.237Z,1010.54
2022-07-26T11:03:06.238Z,1010.60
2022-07-26T11:04:06.143Z,1010.77
2022-07-26T11:05:06.145Z,1010.80
2022-07-26T11:06:06.127Z,1010.68
2022-07-26T11:07:06.118Z,1010.60
2022-07-26T11:08:06.120Z,1010.79
2022-07-26T11:09:06.099Z,1010.61
2022-07-26T11:10:06.107Z,1010.55
2022-07-26T11:11:06.073Z,1010.57
2022-07-26T11:12:06.057Z,1010.64
2022-07-26T11:13:06.048Z,1010.57
2022-07-26T11:14:06.046Z,1010.59
2022-07-26T11:15:06.048Z,1010.59
2022-07-26T11:16:06.081Z,1010.58
2022-07-26T11:17:06.004Z,1010.58
2022-07-26T11:18:05.995Z,1010.59
2022-07-26T11:19:05.992Z,1010.57
2022-07-26T11:20:05.999Z,1010.53
2022-07-26T11:21:05.963Z,1010.55
2022-07-26T11:22:05.951Z,1010.40
2022-07-26T11:23:05.947Z,1010.29
2022-07-26T11:24:05.938Z,1010.35
2022-07-26T11:25:05.947Z,1010.44
2022-07-26T11:26:05.909Z,1010.48
2022-07-26T11:27:05.905Z,1010.41
2022-07-26T11:28:07.279Z,1010.38
2022-07-26T11:29:06.836Z,1010.44
2022-07-26T11:30:05.892Z,1010.41
2022-07-26T11:31:05.952Z,1010.49
2022-07-26T11:32:16.465Z,1010.43
2022-07-26T11:33:06.833Z,1010.38
2022-07-26T11:34:05.838Z,1010.40
2022-07-26T11:35:05.829Z,1010.42
2022-07-26T11:36:05.806Z,1010.47
2022-07-26T11:37:05.800Z,1010.35
2022-07-26T11:38:12.189Z,1010.39
2022-07-26T11:39:06.779Z,1010.40
2022-07-26T11:40:05.782Z,1010.37
2022-07-26T11:41:05.751Z,1010.36
2022-07-26T11:42:05.737Z,1010.34
2022-07-26T11:43:05.736Z,1010.39
2022-07-26T11:44:05.720Z,1010.37
2022-07-26T11:45:05.719Z,1010.43
2022-07-26T11:46:05.818Z,1010.40
2022-07-26T11:47:05.693Z,1010.41
2022-07-26T11:48:05.683Z,1010.41
2022-07-26T11:49:05.748Z,1010.44
2022-07-26T11:50:18.718Z,1010.44
2022-07-26T11:51:07.129Z,1010.45
2022-07-26T11:52:05.632Z,1010.44
2022-07-26T11:53:05.626Z,1010.49
2022-07-26T11:54:05.616Z,1010.54
2022-07-26T11:55:05.740Z,1010.50
2022-07-26T11:56:05.593Z,1010.53
2022-07-26T11:57:05.581Z,1010.49
2022-07-26T11:58:05.573Z,1010.53
2022-07-26T11:59:05.552Z,1010.60
2022-07-26T12:00:05.696Z,1010.56
2022-07-26T12:01:05.544Z,1010.61
2022-07-26T12:02:05.519Z,1010.61
2022-07-26T12:03:05.516Z,1010.69
2022-07-26T12:04:05.739Z,1010.68
2022-07-26T12:05:05.630Z,1010.75